Time;durP1;ratioP1;P1;durP2;ratioP2;P2;SDS_P1;SDS_P2;PMS_P1;PMS_P2;Temp;Humidity;BMP_temperature;BMP_pressure;BME280_temperature;BME280_humidity;BME280_pressure;Samples;Min_cycle;Max_cycle;Signal;HPM_P1;HPM_P2
2023/08/07 00:01:45;;;;;;;7.00;2.88;;;12.90;99.90;;;;;;5115939;28;20629;-48
2023/08/07 00:04:10;;;;;;;5.80;2.65;;;12.90;99.90;;;;;;5115639;28;20707;-48
2023/08/07 00:06:36;;;;;;;6.03;2.85;;;12.90;99.90;;;;;;5115983;28;20260;-48
2023/08/07 00:09:02;;;;;;;5.68;2.55;;;12.80;99.90;;;;;;5114749;28;20216;-51
2023/08/07 00:11:28;;;;;;;6.60;2.97;;;12.80;99.90;;;;;;5115784;28;20256;-51
2023/08/07 00:13:54;;;;;;;9.05;2.97;;;12.80;99.90;;;;;;5115671;28;20197;-49
2023/08/07 00:16:20;;;;;;;5.25;2.80;;;12.80;99.90;;;;;;5115655;28;20176;-53
2023/08/07 00:18:45;;;;;;;3.75;2.53;;;12.80;99.90;;;;;;5114362;28;20213;-52
2023/08/07 00:21:11;;;;;;;6.10;3.42;;;12.80;99.90;;;;;;5114356;28;20177;-50
2023/08/07 00:23:37;;;;;;;8.30;2.67;;;12.80;99.90;;;;;;5115499;28;20177;-51
2023/08/07 00:26:03;;;;;;;5.28;2.63;;;12.80;99.90;;;;;;5115446;28;20226;-50
2023/08/07 00:28:29;;;;;;;8.05;2.95;;;12.70;99.90;;;;;;5115433;28;20259;-53
2023/08/07 00:30:55;;;;;;;7.53;2.42;;;12.70;99.90;;;;;;5115324;28;20581;-53
2023/08/07 00:33:21;;;;;;;7.65;3.08;;;12.70;99.90;;;;;;5115336;28;20169;-52
2023/08/07 00:35:46;;;;;;;7.07;2.45;;;12.60;99.90;;;;;;5115289;28;20177;-50
2023/08/07 00:38:12;;;;;;;5.70;2.83;;;12.70;99.90;;;;;;5115107;28;20257;-48
2023/08/07 00:40:41;;;;;;;7.18;2.53;;;12.60;99.90;;;;;;5115206;28;20186;-48
2023/08/07 00:43:07;;;;;;;7.15;2.90;;;12.60;99.90;;;;;;5114813;28;20669;-50
2023/08/07 00:45:37;;;;;;;7.68;2.85;;;12.60;99.90;;;;;;5115007;28;20173;-50
2023/08/07 00:48:04;;;;;;;6.20;2.40;;;12.60;99.90;;;;;;5115098;28;20581;-52
2023/08/07 00:50:30;;;;;;;5.82;2.75;;;12.60;99.90;;;;;;5115005;28;20254;-52
2023/08/07 00:52:56;;;;;;;7.75;2.95;;;12.60;99.90;;;;;;5114929;28;20236;-51
2023/08/07 00:55:22;;;;;;;7.72;2.60;;;12.50;99.90;;;;;;5114678;28;20165;-52
2023/08/07 00:57:48;;;;;;;6.75;2.80;;;12.60;99.90;;;;;;5114759;28;20193;-53
2023/08/07 01:00:16;;;;;;;8.10;2.60;;;12.60;99.90;;;;;;5114811;27;20193;-50
2023/08/07 01:02:42;;;;;;;6.70;2.67;;;12.60;99.90;;;;;;5114715;28;20173;-52
2023/08/07 01:05:08;;;;;;;7.88;2.92;;;12.50;99.90;;;;;;5114631;28;20208;-53
2023/08/07 01:07:33;;;;;;;6.28;2.63;;;12.60;99.90;;;;;;5114687;28;20614;-52
2023/08/07 01:10:03;;;;;;;6.03;2.78;;;12.60;99.90;;;;;;5114627;28;20622;-51
2023/08/07 01:12:38;;;;;;;8.40;2.30;;;12.60;99.90;;;;;;5114491;28;20183;-51
2023/08/07 01:15:12;;;;;;;5.93;2.17;;;12.70;99.90;;;;;;5114563;28;20417;-50
2023/08/07 01:17:38;;;;;;;5.35;2.45;;;12.60;99.90;;;;;;5114521;28;20185;-49
2023/08/07 01:20:05;;;;;;;5.95;2.60;;;12.70;99.90;;;;;;5113041;28;20634;-52
2023/08/07 01:22:30;;;;;;;8.57;2.50;;;12.70;99.90;;;;;;5114087;28;20290;-51
2023/08/07 01:24:56;;;;;;;5.63;2.58;;;12.70;99.90;;;;;;5114405;28;20659;-52
2023/08/07 01:27:28;;;;;;;6.70;2.50;;;12.70;99.90;;;;;;5114345;28;20582;-52
2023/08/07 01:30:28;;;;;;;8.25;2.58;;;12.70;99.90;;;;;;5113428;28;20157;-47
2023/08/07 01:33:29;;;;;;;6.10;2.42;;;12.70;99.90;;;;;;5100635;28;20246;-51
2023/08/07 01:35:58;;;;;;;6.50;2.47;;;12.80;99.90;;;;;;5114272;28;20602;-51
2023/08/07 01:38:26;;;;;;;7.25;2.53;;;12.80;99.90;;;;;;5114028;28;20208;-50
2023/08/07 01:40:53;;;;;;;7.05;2.72;;;12.70;99.90;;;;;;5114090;28;20491;-50
2023/08/07 01:43:19;;;;;;;4.75;2.40;;;12.70;99.90;;;;;;5113897;28;20199;-52
2023/08/07 01:45:45;;;;;;;6.00;2.67;;;12.70;99.90;;;;;;5114107;28;20176;-48
2023/08/07 01:48:11;;;;;;;6.65;2.88;;;12.70;99.90;;;;;;5114053;28;20248;-48
2023/08/07 01:50:38;;;;;;;5.53;2.35;;;12.70;99.90;;;;;;5113986;28;20226;-48
2023/08/07 01:53:04;;;;;;;5.20;2.58;;;12.70;99.90;;;;;;5114006;28;20622;-48
2023/08/07 01:55:30;;;;;;;6.82;2.80;;;12.60;99.90;;;;;;5112543;28;20171;-51
2023/08/07 01:57:56;;;;;;;4.82;2.50;;;12.50;99.90;;;;;;5113877;28;20215;-52
2023/08/07 02:00:22;;;;;;;8.20;2.72;;;12.50;99.90;;;;;;5113769;28;20641;-48
2023/08/07 02:02:48;;;;;;;5.40;2.35;;;12.50;99.90;;;;;;5113892;28;20161;-49
2023/08/07 02:05:14;;;;;;;4.03;2.42;;;12.50;99.90;;;;;;5113875;28;20177;-53
2023/08/07 02:07:40;;;;;;;10.00;2.55;;;12.50;99.90;;;;;;5113840;28;20177;-51
2023/08/07 02:10:06;;;;;;;5.60;2.70;;;12.50;99.90;;;;;;5114166;28;20248;-49
2023/08/07 02:12:32;;;;;;;6.35;2.42;;;12.60;99.90;;;;;;5113705;28;20702;-51
2023/08/07 02:14:59;;;;;;;5.88;2.45;;;12.50;99.90;;;;;;5113838;28;20267;-52
2023/08/07 02:17:25;;;;;;;5.68;2.50;;;12.60;99.90;;;;;;5113754;28;20201;-53
2023/08/07 02:19:51;;;;;;;4.40;2.30;;;12.50;99.90;;;;;;5113333;28;20228;-52
2023/08/07 02:22:16;;;;;;;5.18;2.47;;;12.50;99.90;;;;;;5113434;28;20257;-53
2023/08/07 02:24:42;;;;;;;5.97;2.13;;;12.50;99.90;;;;;;5113422;28;20169;-51
2023/08/07 02:27:08;;;;;;;6.18;2.50;;;12.50;99.90;;;;;;5113718;28;20166;-53
2023/08/07 02:29:34;;;;;;;5.22;2.40;;;12.50;99.90;;;;;;5113710;28;20593;-53
2023/08/07 02:32:02;;;;;;;8.00;2.53;;;12.50;99.90;;;;;;5113622;28;20223;-49
2023/08/07 02:34:28;;;;;;;3.25;2.05;;;12.50;99.90;;;;;;5113526;28;20176;-53
2023/08/07 02:36:54;;;;;;;6.15;2.13;;;12.40;99.90;;;;;;5113549;28;20161;-48
2023/08/07 02:39:20;;;;;;;4.15;2.15;;;12.40;99.90;;;;;;5113570;28;20568;-49
2023/08/07 02:41:45;;;;;;;5.88;2.47;;;12.40;99.90;;;;;;5113780;28;20174;-53
2023/08/07 02:44:11;;;;;;;5.80;2.17;;;12.50;99.90;;;;;;5117371;28;20177;-53
2023/08/07 02:46:37;;;;;;;6.60;2.67;;;12.40;99.90;;;;;;5117385;28;20173;-53
2023/08/07 02:49:02;;;;;;;4.50;2.22;;;12.40;99.90;;;;;;5117343;28;20173;-51
2023/08/07 02:51:28;;;;;;;5.57;2.42;;;12.40;99.90;;;;;;5117278;28;20511;-48
2023/08/07 02:53:54;;;;;;;6.35;3.05;;;12.40;99.90;;;;;;5117266;28;20170;-48
2023/08/07 02:56:19;;;;;;;5.13;2.85;;;12.40;99.90;;;;;;5117232;28;20260;-51
2023/08/07 02:58:45;;;;;;;7.32;2.92;;;12.30;99.90;;;;;;5117063;28;20665;-49
2023/08/07 03:01:11;;;;;;;6.70;3.40;;;12.30;99.90;;;;;;5117137;28;20526;-53
2023/08/07 03:03:37;;;;;;;11.55;3.33;;;12.20;99.90;;;;;;5117281;28;20621;-49
2023/08/07 03:06:03;;;;;;;5.93;3.33;;;12.10;99.90;;;;;;5116775;28;20253;-48
2023/08/07 03:08:29;;;;;;;6.95;3.38;;;12.10;99.90;;;;;;5117034;28;20185;-49
2023/08/07 03:10:57;;;;;;;7.00;3.20;;;12.00;99.90;;;;;;5116948;28;20180;-50
2023/08/07 03:13:23;;;;;;;6.07;3.20;;;12.00;99.90;;;;;;5116871;28;20177;-48
2023/08/07 03:15:50;;;;;;;6.28;2.88;;;12.10;99.90;;;;;;5116883;28;20181;-48
2023/08/07 03:18:19;;;;;;;8.85;3.13;;;12.20;99.90;;;;;;5116708;27;20720;-50
2023/08/07 03:20:44;;;;;;;4.97;3.10;;;12.20;99.90;;;;;;5116848;28;20225;-48
2023/08/07 03:23:10;;;;;;;6.70;3.10;;;12.20;99.90;;;;;;5116409;28;20191;-48
2023/08/07 03:25:36;;;;;;;7.35;2.90;;;12.20;99.90;;;;;;5116722;28;20173;-49
2023/08/07 03:28:03;;;;;;;8.80;2.90;;;12.30;99.90;;;;;;5116665;28;20181;-51
2023/08/07 03:30:28;;;;;;;4.40;2.33;;;12.30;99.90;;;;;;5116617;28;20199;-52
2023/08/07 03:32:54;;;;;;;7.88;3.08;;;12.30;99.90;;;;;;5116552;28;20173;-49
2023/08/07 03:35:20;;;;;;;5.20;2.65;;;12.30;99.90;;;;;;5116530;28;20170;-50
2023/08/07 03:37:45;;;;;;;4.50;2.35;;;12.20;99.90;;;;;;5116404;28;20604;-50
2023/08/07 03:40:11;;;;;;;6.20;2.97;;;12.20;99.90;;;;;;5116089;28;20173;-53
2023/08/07 03:42:37;;;;;;;5.95;2.75;;;12.10;99.90;;;;;;5116292;28;20625;-53
2023/08/07 03:45:03;;;;;;;6.57;2.58;;;12.10;99.90;;;;;;5116317;28;20218;-52
2023/08/07 03:47:28;;;;;;;6.70;3.10;;;12.20;99.90;;;;;;5116287;28;20184;-49
2023/08/07 03:49:54;;;;;;;4.32;2.75;;;12.10;99.90;;;;;;5116216;28;20641;-54
2023/08/07 03:52:19;;;;;;;5.85;2.80;;;12.10;99.90;;;;;;5115747;28;20180;-50
2023/08/07 03:54:45;;;;;;;6.07;3.38;;;12.10;99.90;;;;;;5115429;28;20292;-47
2023/08/07 03:57:11;;;;;;;4.57;2.78;;;12.10;99.90;;;;;;5115965;28;20173;-48
2023/08/07 03:59:37;;;;;;;5.95;2.83;;;12.10;99.90;;;;;;5115997;28;20230;-50
2023/08/07 04:02:03;;;;;;;6.65;2.80;;;12.10;99.90;;;;;;5115953;28;20185;-51
2023/08/07 04:04:28;;;;;;;6.70;3.63;;;12.10;99.90;;;;;;5115630;28;20177;-49
2023/08/07 04:06:54;;;;;;;7.35;2.90;;;12.10;99.90;;;;;;5115860;28;20179;-49
2023/08/07 04:09:20;;;;;;;9.68;3.17;;;12.20;99.90;;;;;;5115745;28;20174;-52
2023/08/07 04:11:45;;;;;;;5.20;3.50;;;12.20;99.90;;;;;;5115466;28;20534;-51
2023/08/07 04:14:11;;;;;;;8.48;3.28;;;12.20;99.90;;;;;;5115811;28;20181;-51
2023/08/07 04:16:37;;;;;;;7.97;3.65;;;12.20;99.90;;;;;;5115620;28;20170;-52
2023/08/07 04:19:03;;;;;;;5.97;3.30;;;12.20;99.90;;;;;;5115580;28;20264;-52
2023/08/07 04:21:30;;;;;;;4.40;2.83;;;12.10;99.90;;;;;;5115567;28;20614;-53
2023/08/07 04:23:55;;;;;;;5.47;2.63;;;12.10;99.90;;;;;;5115526;28;20173;-50
2023/08/07 04:26:21;;;;;;;6.38;3.17;;;12.10;99.90;;;;;;5115428;28;20238;-50
2023/08/07 04:28:47;;;;;;;6.43;3.30;;;12.00;99.90;;;;;;5115450;28;20177;-48
2023/08/07 04:31:12;;;;;;;6.47;3.25;;;12.10;99.90;;;;;;5115360;28;20684;-53
2023/08/07 04:33:38;;;;;;;5.40;3.05;;;12.00;99.90;;;;;;5115303;28;20184;-53
2023/08/07 04:36:04;;;;;;;6.68;3.30;;;12.00;99.90;;;;;;5114997;28;20176;-52
2023/08/07 04:38:30;;;;;;;6.10;3.10;;;11.90;99.90;;;;;;5114901;27;20253;-50
2023/08/07 04:40:55;;;;;;;6.63;3.08;;;12.00;99.90;;;;;;5115122;28;20205;-53
2023/08/07 04:43:21;;;;;;;6.88;3.25;;;12.00;99.90;;;;;;5114736;28;20180;-53
2023/08/07 04:45:47;;;;;;;7.90;3.38;;;12.00;99.90;;;;;;5115073;28;20181;-51
2023/08/07 04:48:13;;;;;;;6.47;3.30;;;11.90;99.90;;;;;;5115001;28;20185;-51
2023/08/07 04:50:39;;;;;;;8.07;3.70;;;11.90;99.90;;;;;;5115014;28;20177;-50
2023/08/07 04:53:05;;;;;;;7.53;3.25;;;11.80;99.90;;;;;;5114994;28;20165;-51
2023/08/07 04:55:31;;;;;;;5.25;3.28;;;11.90;99.90;;;;;;5114840;28;20160;-53
2023/08/07 04:57:57;;;;;;;6.03;3.88;;;11.90;99.90;;;;;;5114526;28;20217;-48
2023/08/07 05:00:23;;;;;;;8.10;3.65;;;11.90;99.90;;;;;;5114782;28;20181;-52
2023/08/07 05:02:49;;;;;;;6.57;3.53;;;12.00;99.90;;;;;;5114868;28;20173;-51
2023/08/07 05:05:15;;;;;;;6.28;3.55;;;12.00;99.90;;;;;;5114527;28;20488;-52
2023/08/07 05:07:41;;;;;;;5.53;3.38;;;12.00;99.90;;;;;;5114669;28;20192;-50
2023/08/07 05:10:08;;;;;;;5.85;3.60;;;12.10;99.90;;;;;;5114629;28;20705;-52
2023/08/07 05:12:34;;;;;;;5.03;3.50;;;12.20;99.90;;;;;;5114636;28;20169;-52
2023/08/07 05:14:59;;;;;;;6.60;3.45;;;12.30;99.90;;;;;;5114565;28;20173;-52
2023/08/07 05:17:25;;;;;;;6.80;3.45;;;12.30;99.90;;;;;;5114474;28;20197;-53
2023/08/07 05:19:51;;;;;;;7.93;3.58;;;12.30;99.90;;;;;;5114511;28;20232;-53
2023/08/07 05:22:16;;;;;;;8.18;3.75;;;12.40;99.90;;;;;;5114463;28;20181;-53
2023/08/07 05:24:43;;;;;;;5.72;3.55;;;12.40;99.90;;;;;;5114385;28;20310;-51
2023/08/07 05:27:09;;;;;;;8.50;4.22;;;12.50;99.90;;;;;;5114353;28;20180;-50
2023/08/07 05:29:43;;;;;;;9.48;4.15;;;12.60;99.90;;;;;;5114589;28;20177;-52
2023/08/07 05:32:09;;;;;;;7.38;3.70;;;12.70;99.90;;;;;;5114274;28;20162;-53
2023/08/07 05:34:35;;;;;;;7.35;3.70;;;12.70;99.90;;;;;;5114210;28;20230;-52
2023/08/07 05:37:01;;;;;;;7.50;3.90;;;12.90;99.90;;;;;;5114084;28;20188;-51
2023/08/07 05:39:26;;;;;;;5.70;3.42;;;13.00;99.90;;;;;;5114186;28;20516;-52
2023/08/07 05:41:53;;;;;;;5.13;2.80;;;13.00;99.90;;;;;;5114127;28;20173;-53
2023/08/07 05:44:20;;;;;;;5.60;3.67;;;13.10;99.90;;;;;;5114114;28;20165;-50
2023/08/07 05:46:45;;;;;;;6.95;3.70;;;13.20;99.90;;;;;;5114077;28;20657;-50
2023/08/07 05:49:11;;;;;;;7.65;3.97;;;13.20;99.90;;;;;;5113825;28;20185;-53
2023/08/07 05:51:36;;;;;;;7.75;3.45;;;13.30;99.90;;;;;;5113583;28;20208;-48
2023/08/07 05:54:02;;;;;;;7.60;3.40;;;13.40;99.90;;;;;;5113644;28;20200;-50
2023/08/07 05:56:28;;;;;;;5.32;3.38;;;13.40;99.90;;;;;;5113510;28;20185;-54
2023/08/07 05:58:53;;;;;;;9.18;3.45;;;13.50;99.90;;;;;;5113737;28;20314;-53
2023/08/07 06:01:19;;;;;;;5.28;3.13;;;13.60;99.90;;;;;;5113798;28;20173;-51
2023/08/07 06:03:45;;;;;;;6.95;3.38;;;13.80;99.90;;;;;;5113937;28;20173;-50
2023/08/07 06:06:10;;;;;;;6.13;3.33;;;13.90;99.90;;;;;;5113883;28;20174;-54
2023/08/07 06:08:36;;;;;;;6.15;2.92;;;14.00;99.90;;;;;;5113773;28;20189;-52
2023/08/07 06:11:08;;;;;;;5.80;3.40;;;14.10;99.90;;;;;;5113814;28;20522;-54
2023/08/07 06:13:34;;;;;;;6.38;3.58;;;14.20;99.90;;;;;;5093524;28;20190;-52
2023/08/07 06:15:59;;;;;;;6.07;3.60;;;14.30;99.90;;;;;;5093470;28;20181;-52
2023/08/07 06:18:25;;;;;;;5.25;3.13;;;14.30;99.90;;;;;;5097575;28;20547;-51
2023/08/07 06:20:51;;;;;;;4.88;2.97;;;14.40;99.90;;;;;;5097038;28;20253;-52
2023/08/07 06:23:16;;;;;;;5.57;3.53;;;14.50;99.90;;;;;;5096060;28;20324;-54
2023/08/07 06:25:43;;;;;;;7.00;3.30;;;14.60;99.90;;;;;;5101183;28;20242;-50
2023/08/07 06:28:08;;;;;;;5.75;3.78;;;14.80;99.90;;;;;;5117545;28;20177;-52
2023/08/07 06:30:34;;;;;;;8.85;3.53;;;14.90;99.90;;;;;;5117873;28;20201;-52
2023/08/07 06:32:59;;;;;;;5.53;3.25;;;15.00;99.90;;;;;;5117730;28;20213;-52
2023/08/07 06:35:25;;;;;;;7.72;3.30;;;15.10;99.90;;;;;;5117602;28;20169;-53
2023/08/07 06:37:51;;;;;;;5.13;2.95;;;15.20;99.90;;;;;;5117518;28;20209;-53
2023/08/07 06:40:16;;;;;;;6.90;2.88;;;15.30;99.90;;;;;;5117575;28;20173;-50
2023/08/07 06:42:42;;;;;;;5.05;2.88;;;15.50;99.90;;;;;;5117234;28;20201;-52
2023/08/07 06:45:08;;;;;;;11.55;3.10;;;15.50;99.90;;;;;;5117361;28;20260;-49
2023/08/07 06:47:34;;;;;;;5.70;3.08;;;15.60;99.90;;;;;;5116163;28;20255;-51
2023/08/07 06:50:00;;;;;;;6.45;2.97;;;15.80;99.90;;;;;;5117615;28;20636;-51
2023/08/07 06:52:25;;;;;;;3.50;2.65;;;15.80;99.90;;;;;;5117356;28;20264;-52
2023/08/07 06:54:52;;;;;;;5.55;3.20;;;16.00;99.90;;;;;;5117544;28;20618;-52
2023/08/07 06:57:17;;;;;;;8.20;3.40;;;16.00;99.90;;;;;;5116997;28;20602;-50
2023/08/07 06:59:44;;;;;;;8.73;3.10;;;16.10;99.90;;;;;;5117270;28;20265;-53
2023/08/07 07:02:09;;;;;;;5.40;2.70;;;16.20;99.90;;;;;;5117129;28;20177;-52
2023/08/07 07:04:36;;;;;;;7.65;3.00;;;16.20;99.90;;;;;;5117107;28;20530;-50
2023/08/07 07:07:02;;;;;;;5.15;2.97;;;16.40;99.90;;;;;;5117067;28;20205;-52
2023/08/07 07:09:28;;;;;;;7.13;3.03;;;16.50;99.90;;;;;;5116889;28;20226;-52
2023/08/07 07:11:55;;;;;;;7.88;2.70;;;16.50;99.90;;;;;;5116772;28;20181;-52
2023/08/07 07:14:21;;;;;;;5.50;2.72;;;16.60;99.90;;;;;;5116635;28;20674;-51
2023/08/07 07:16:47;;;;;;;4.75;3.05;;;16.70;99.90;;;;;;5116892;27;20173;-50
2023/08/07 07:19:13;;;;;;;6.20;2.88;;;16.70;99.90;;;;;;5116486;28;20324;-50
2023/08/07 07:21:38;;;;;;;4.03;2.28;;;16.90;99.90;;;;;;5116862;28;20166;-51
2023/08/07 07:24:04;;;;;;;9.30;2.95;;;17.00;99.90;;;;;;5116473;28;20182;-52
2023/08/07 07:26:30;;;;;;;6.22;2.72;;;17.00;99.90;;;;;;5116483;28;20634;-52
2023/08/07 07:28:56;;;;;;;8.23;2.90;;;17.00;99.90;;;;;;5116567;28;20223;-52
2023/08/07 07:31:22;;;;;;;7.68;2.83;;;17.00;99.90;;;;;;5116672;28;20644;-52
2023/08/07 07:33:48;;;;;;;6.00;2.47;;;17.10;99.90;;;;;;5116670;28;20173;-53
2023/08/07 07:36:17;;;;;;;3.22;1.95;;;17.10;99.90;;;;;;5116603;28;20178;-52
2023/08/07 07:38:45;;;;;;;4.00;2.33;;;17.30;99.90;;;;;;5116407;28;20228;-52
2023/08/07 07:41:11;;;;;;;4.97;2.22;;;17.40;99.90;;;;;;5116388;28;20190;-52
2023/08/07 07:43:37;;;;;;;4.85;2.05;;;17.60;99.90;;;;;;5116268;28;20267;-48
2023/08/07 07:46:03;;;;;;;3.85;2.10;;;17.50;99.90;;;;;;5116270;28;20169;-53
2023/08/07 07:48:29;;;;;;;5.72;2.30;;;17.60;99.90;;;;;;5116250;28;20523;-50
2023/08/07 07:51:02;;;;;;;4.78;2.50;;;17.60;99.90;;;;;;5115859;28;20173;-50
2023/08/07 07:53:28;;;;;;;3.15;2.20;;;17.50;99.90;;;;;;5115896;28;20256;-52
2023/08/07 07:55:53;;;;;;;6.88;2.10;;;17.40;99.90;;;;;;5115895;28;20294;-51
2023/08/07 07:58:20;;;;;;;6.07;2.30;;;17.40;99.90;;;;;;5115722;28;20204;-51
2023/08/07 08:00:46;;;;;;;4.97;2.03;;;17.30;99.90;;;;;;5115052;28;20202;-50
2023/08/07 08:03:12;;;;;;;2.83;2.03;;;17.10;99.90;;;;;;5115629;28;20256;-53
2023/08/07 08:05:38;;;;;;;6.93;2.08;;;17.30;99.90;;;;;;5115927;28;20191;-49
2023/08/07 08:08:05;;;;;;;5.10;1.95;;;17.00;99.90;;;;;;5115775;28;20223;-48
2023/08/07 08:10:30;;;;;;;3.83;2.03;;;16.80;99.90;;;;;;5115571;28;20165;-51
2023/08/07 08:12:56;;;;;;;3.58;2.00;;;16.90;99.90;;;;;;5115614;28;20562;-53
2023/08/07 08:15:22;;;;;;;2.95;2.00;;;17.20;99.90;;;;;;5115748;28;20231;-49
2023/08/07 08:17:48;;;;;;;3.75;2.28;;;17.30;99.90;;;;;;5115587;28;20216;-49
2023/08/07 08:20:18;;;;;;;5.32;1.95;;;17.40;99.90;;;;;;5115625;28;20605;-51
2023/08/07 08:22:45;;;;;;;3.53;1.98;;;17.70;99.90;;;;;;5115823;28;20205;-53
2023/08/07 08:25:11;;;;;;;5.60;2.33;;;17.90;99.90;;;;;;5115247;28;20255;-49
2023/08/07 08:27:37;;;;;;;3.80;2.17;;;17.70;99.90;;;;;;5114077;28;20246;-50
2023/08/07 08:30:04;;;;;;;4.60;1.92;;;17.60;99.90;;;;;;5115499;28;20204;-50
2023/08/07 08:32:29;;;;;;;2.15;1.70;;;17.70;99.90;;;;;;5115355;28;20174;-52
2023/08/07 08:34:55;;;;;;;6.07;2.00;;;17.90;99.90;;;;;;5115327;28;20173;-52
2023/08/07 08:37:21;;;;;;;3.17;1.80;;;17.80;99.90;;;;;;5114931;28;20204;-49
2023/08/07 08:39:47;;;;;;;2.83;1.80;;;18.00;99.90;;;;;;5114757;28;20641;-48
2023/08/07 08:42:13;;;;;;;4.88;2.00;;;18.30;99.90;;;;;;5115230;28;20221;-48
2023/08/07 08:44:40;;;;;;;2.22;1.60;;;18.20;99.90;;;;;;5115062;28;20280;-48
2023/08/07 08:47:06;;;;;;;3.70;1.70;;;18.30;99.90;;;;;;5115140;28;20184;-51
2023/08/07 08:49:45;;;;;;;3.10;1.95;;;18.20;99.90;;;;;;5115141;28;20173;-49
2023/08/07 08:52:12;;;;;;;3.97;1.90;;;18.00;99.90;;;;;;5115324;28;20153;-53
2023/08/07 08:54:40;;;;;;;3.65;1.85;;;17.90;99.90;;;;;;5114996;28;20180;-50
2023/08/07 08:57:07;;;;;;;3.13;1.80;;;18.10;99.90;;;;;;5114689;27;20166;-50
2023/08/07 08:59:34;;;;;;;3.53;1.55;;;18.20;99.90;;;;;;5114873;28;20184;-53
2023/08/07 09:01:59;;;;;;;4.45;1.85;;;18.20;99.90;;;;;;5114518;28;20661;-51
2023/08/07 09:04:25;;;;;;;4.38;2.13;;;18.40;99.90;;;;;;5113750;28;20173;-50
2023/08/07 09:06:51;;;;;;;2.40;1.77;;;18.10;99.90;;;;;;5114108;28;20183;-49
2023/08/07 09:09:19;;;;;;;4.35;1.70;;;18.40;99.90;;;;;;5114711;28;20205;-53
2023/08/07 09:11:46;;;;;;;4.43;1.70;;;18.70;99.90;;;;;;5114362;28;20181;-51
2023/08/07 09:14:16;;;;;;;4.70;1.85;;;18.50;99.90;;;;;;5114628;28;20219;-48
2023/08/07 09:16:47;;;;;;;3.95;1.60;;;18.30;99.90;;;;;;5114626;28;20269;-50
2023/08/07 09:19:13;;;;;;;3.60;1.90;;;18.00;99.90;;;;;;5114209;28;20628;-48
2023/08/07 09:21:39;;;;;;;2.13;1.60;;;17.80;99.90;;;;;;5114547;28;20169;-49
2023/08/07 09:24:05;;;;;;;2.33;1.90;;;18.00;99.90;;;;;;5114457;28;20180;-50
2023/08/07 09:26:33;;;;;;;2.00;1.63;;;18.40;99.90;;;;;;5114441;28;20169;-48
2023/08/07 09:28:59;;;;;;;2.33;1.42;;;18.70;99.90;;;;;;5114046;28;20660;-51
2023/08/07 09:31:26;;;;;;;3.00;1.50;;;18.90;99.90;;;;;;5114045;28;20669;-51
2023/08/07 09:33:52;;;;;;;2.45;1.67;;;19.00;99.90;;;;;;5114026;28;20529;-49
2023/08/07 09:36:18;;;;;;;1.80;1.55;;;18.90;99.90;;;;;;5114547;28;20222;-49
2023/08/07 09:38:49;;;;;;;1.45;1.30;;;18.70;99.90;;;;;;5114089;28;20205;-49
2023/08/07 09:41:18;;;;;;;2.13;1.70;;;19.00;99.90;;;;;;5114214;28;20173;-51
2023/08/07 09:43:43;;;;;;;4.20;1.60;;;19.10;99.90;;;;;;5106891;28;20585;-51
2023/08/07 09:46:09;;;;;;;3.00;1.50;;;19.30;99.90;;;;;;5114080;28;20169;-49
2023/08/07 09:48:43;;;;;;;2.25;1.60;;;19.50;99.90;;;;;;5114200;28;20686;-50
2023/08/07 09:51:09;;;;;;;2.55;1.55;;;19.60;99.90;;;;;;5113187;28;20165;-51
2023/08/07 09:53:34;;;;;;;4.28;1.90;;;19.70;99.90;;;;;;5114094;28;20181;-51
2023/08/07 09:56:01;;;;;;;1.77;1.65;;;19.80;99.90;;;;;;5114016;28;20173;-51
2023/08/07 09:58:27;;;;;;;2.40;1.70;;;19.60;99.90;;;;;;5113947;28;20201;-52
2023/08/07 10:00:53;;;;;;;3.70;1.65;;;19.30;99.90;;;;;;5114142;28;20177;-51
2023/08/07 10:03:21;;;;;;;2.40;1.38;;;19.40;99.90;;;;;;5115470;28;20175;-53
2023/08/07 10:05:47;;;;;;;3.75;1.65;;;19.40;99.90;;;;;;5113710;28;20177;-52
2023/08/07 10:08:13;;;;;;;2.33;1.67;;;19.60;99.90;;;;;;5113523;28;20181;-49
2023/08/07 10:10:39;;;;;;;3.25;1.92;;;19.80;99.90;;;;;;5113682;28;20202;-50
2023/08/07 10:13:05;;;;;;;2.53;1.70;;;19.70;99.90;;;;;;5113868;28;20234;-52
2023/08/07 10:15:36;;;;;;;2.70;1.70;;;19.30;99.90;;;;;;5113895;28;20165;-50
2023/08/07 10:18:02;;;;;;;4.78;1.80;;;19.10;99.90;;;;;;5113254;28;20201;-51
2023/08/07 10:20:30;;;;;;;1.60;1.35;;;18.70;99.90;;;;;;5113619;28;20274;-51
2023/08/07 10:23:05;;;;;;;2.30;1.80;;;19.00;99.90;;;;;;5113755;28;20184;-52
2023/08/07 10:25:32;;;;;;;4.65;1.80;;;19.40;99.90;;;;;;5113751;28;20302;-53
2023/08/07 10:28:00;;;;;;;1.58;1.48;;;19.70;99.90;;;;;;5113736;28;20205;-52
2023/08/07 10:30:27;;;;;;;2.83;1.70;;;20.00;99.90;;;;;;5113680;28;20182;-48
2023/08/07 10:32:54;;;;;;;2.45;1.63;;;20.30;99.90;;;;;;5113780;28;20173;-49
2023/08/07 10:35:29;;;;;;;1.95;1.30;;;20.40;99.90;;;;;;5113487;28;20173;-48
2023/08/07 10:38:04;;;;;;;2.17;1.63;;;20.00;99.90;;;;;;5113589;28;20654;-50
2023/08/07 10:40:31;;;;;;;2.95;1.55;;;19.80;99.90;;;;;;5113373;28;20630;-53
2023/08/07 10:43:11;;;;;;;3.03;1.40;;;20.00;99.90;;;;;;5113259;28;20191;-50
2023/08/07 10:45:38;;;;;;;2.78;1.40;;;20.30;99.90;;;;;;5113705;28;20166;-48
2023/08/07 10:48:09;;;;;;;1.48;1.30;;;20.30;99.90;;;;;;5113607;28;20192;-52
2023/08/07 10:50:48;;;;;;;3.17;1.27;;;19.80;99.90;;;;;;5113509;28;20193;-51
2023/08/07 10:53:42;;;;;;;2.15;1.30;;;19.90;99.90;;;;;;5113579;28;20185;-51
2023/08/07 10:56:09;;;;;;;1.85;1.38;;;19.60;99.90;;;;;;5113551;28;20164;-53
2023/08/07 10:58:37;;;;;;;2.67;1.48;;;19.90;99.90;;;;;;5113340;28;20252;-52
2023/08/07 11:01:30;;;;;;;2.05;1.40;;;20.30;99.90;;;;;;5113456;28;20610;-50
2023/08/07 11:04:00;;;;;;;1.90;1.38;;;20.50;99.90;;;;;;5116418;28;20634;-51
2023/08/07 11:06:32;;;;;;;1.70;1.33;;;20.40;99.90;;;;;;5116893;28;20615;-50
2023/08/07 11:09:03;;;;;;;4.03;1.50;;;20.40;99.90;;;;;;5117311;28;20262;-50
2023/08/07 11:11:30;;;;;;;2.45;1.30;;;20.60;99.90;;;;;;5116962;27;20174;-51
2023/08/07 11:13:55;;;;;;;2.90;1.40;;;20.30;99.90;;;;;;5117167;28;20197;-53
2023/08/07 11:16:22;;;;;;;2.17;1.50;;;20.30;99.90;;;;;;5116746;28;20580;-52
2023/08/07 11:18:49;;;;;;;4.45;1.27;;;20.20;99.90;;;;;;5116423;28;20201;-53
2023/08/07 11:21:14;;;;;;;1.77;1.25;;;20.60;99.90;;;;;;5116505;28;20630;-50
2023/08/07 11:23:41;;;;;;;2.58;1.48;;;20.70;99.90;;;;;;5116814;27;20269;-50
2023/08/07 11:26:08;;;;;;;3.78;1.50;;;20.80;99.90;;;;;;5116756;28;20181;-51
2023/08/07 11:28:34;;;;;;;2.35;1.33;;;21.10;99.90;;;;;;5116669;28;20177;-49
2023/08/07 11:31:01;;;;;;;3.10;1.30;;;21.00;99.90;;;;;;5116541;28;20534;-51
2023/08/07 11:33:28;;;;;;;2.17;1.30;;;20.80;99.90;;;;;;5116604;28;20173;-52
2023/08/07 11:35:54;;;;;;;2.33;1.30;;;20.20;99.90;;;;;;5116301;28;20189;-51
2023/08/07 11:38:34;;;;;;;2.42;1.40;;;19.90;99.90;;;;;;5116374;28;20193;-49
2023/08/07 11:41:01;;;;;;;1.60;1.50;;;19.60;99.90;;;;;;5116448;27;20648;-48
2023/08/07 11:43:29;;;;;;;1.83;1.40;;;19.60;99.90;;;;;;5116382;28;20212;-49
2023/08/07 11:45:56;;;;;;;4.22;1.92;;;20.00;99.90;;;;;;5116269;28;20177;-48
2023/08/07 11:48:25;;;;;;;2.42;1.70;;;20.30;99.90;;;;;;5116272;28;20649;-50
2023/08/07 11:50:52;;;;;;;3.30;1.65;;;20.70;99.90;;;;;;5116258;28;20169;-54
2023/08/07 11:53:19;;;;;;;2.47;1.70;;;20.30;99.90;;;;;;5115925;28;20181;-52
2023/08/07 11:55:56;;;;;;;1.63;1.52;;;20.10;99.90;;;;;;5116409;28;20177;-49
2023/08/07 11:58:23;;;;;;;4.10;1.75;;;20.00;99.90;;;;;;5116069;28;20193;-51
2023/08/07 12:00:49;;;;;;;2.08;1.50;;;20.30;99.90;;;;;;5115766;28;20171;-51
2023/08/07 12:03:33;;;;;;;2.58;1.70;;;20.20;99.90;;;;;;5115880;28;20519;-54
2023/08/07 12:06:02;;;;;;;2.40;1.42;;;20.30;99.90;;;;;;5115730;28;20181;-53
2023/08/07 12:08:33;;;;;;;2.65;1.60;;;20.50;99.90;;;;;;5115912;28;20180;-54
2023/08/07 12:11:04;;;;;;;2.42;1.70;;;20.80;99.90;;;;;;5115791;28;20180;-53
2023/08/07 12:13:31;;;;;;;3.45;1.40;;;20.70;99.90;;;;;;5115168;28;20645;-51
2023/08/07 12:15:58;;;;;;;3.22;1.40;;;20.70;99.90;;;;;;5115390;28;20174;-51
2023/08/07 12:18:26;;;;;;;1.42;1.30;;;20.90;99.90;;;;;;5115210;28;20201;-52
2023/08/07 12:20:56;;;;;;;1.52;1.13;;;21.10;99.90;;;;;;5115896;28;20299;-52
2023/08/07 12:23:22;;;;;;;2.58;1.48;;;20.90;99.90;;;;;;5115488;28;20169;-53
2023/08/07 12:25:48;;;;;;;2.03;1.40;;;20.60;99.90;;;;;;5113482;28;20515;-52
2023/08/07 12:28:15;;;;;;;2.60;1.25;;;20.40;99.90;;;;;;5115190;28;20173;-53
2023/08/07 12:30:47;;;;;;;2.42;1.60;;;20.20;99.90;;;;;;5115602;28;20170;-52
2023/08/07 12:33:13;;;;;;;3.03;1.33;;;19.90;99.90;;;;;;5115495;28;20210;-53
2023/08/07 12:35:40;;;;;;;2.33;1.63;;;19.70;99.90;;;;;;5115214;28;20173;-52
2023/08/07 12:38:06;;;;;;;2.53;1.65;;;19.80;99.90;;;;;;5115221;28;20686;-53
2023/08/07 12:40:32;;;;;;;2.17;1.63;;;19.80;99.90;;;;;;5114335;28;20178;-51
2023/08/07 12:43:00;;;;;;;2.88;1.67;;;19.80;99.90;;;;;;5115544;28;20180;-54
2023/08/07 12:45:26;;;;;;;2.50;1.50;;;19.50;99.90;;;;;;5115238;27;20180;-49